createdAt,value
2022-12-24T00:01:05.366Z,13.72
2022-12-24T00:03:33.112Z,13.80
2022-12-24T00:06:04.991Z,13.73
2022-12-24T00:08:31.828Z,13.78
2022-12-24T00:10:58.733Z,13.87
2022-12-24T00:13:25.721Z,13.87
2022-12-24T00:15:52.666Z,13.80
2022-12-24T00:18:19.537Z,13.69
2022-12-24T00:20:50.132Z,13.51
2022-12-24T00:23:18.036Z,13.70
2022-12-24T00:25:45.028Z,13.68
2022-12-24T00:28:13.456Z,13.88
2022-12-24T00:30:42.452Z,13.48
2022-12-24T00:33:09.493Z,13.63
2022-12-24T00:35:37.993Z,13.60
2022-12-24T00:38:05.472Z,13.83
2022-12-24T00:40:32.752Z,13.74
2022-12-24T00:42:59.659Z,13.72
2022-12-24T00:45:29.695Z,13.86
2022-12-24T00:47:56.479Z,13.78
2022-12-24T00:50:23.409Z,13.63
2022-12-24T00:52:50.209Z,13.60
2022-12-24T00:55:17.139Z,13.65
2022-12-24T00:57:44.001Z,13.63
2022-12-24T01:00:11.567Z,13.54
2022-12-24T01:02:38.796Z,13.47
2022-12-24T01:05:12.498Z,13.48
2022-12-24T01:07:44.198Z,13.36
2022-12-24T01:10:15.326Z,13.29
2022-12-24T01:12:42.244Z,13.37
2022-12-24T01:15:11.173Z,13.27
2022-12-24T01:17:38.515Z,13.04
2022-12-24T01:20:08.147Z,13.05
2022-12-24T01:22:35.353Z,13.09
2022-12-24T01:25:02.207Z,12.95
2022-12-24T01:27:29.044Z,12.98
2022-12-24T01:29:55.877Z,12.87
2022-12-24T01:32:22.724Z,12.82
2022-12-24T01:34:49.575Z,12.78
2022-12-24T01:37:16.445Z,12.79
2022-12-24T01:39:43.357Z,12.75
2022-12-24T01:42:41.691Z,12.75
2022-12-24T01:45:51.041Z,12.65
2022-12-24T01:48:36.059Z,12.67
2022-12-24T01:51:35.701Z,12.54
2022-12-24T01:54:21.881Z,12.63
2022-12-24T01:56:58.953Z,12.40
2022-12-24T01:59:26.221Z,12.53
2022-12-24T02:01:54.512Z,12.52
2022-12-24T02:04:44.950Z,12.55
2022-12-24T02:07:11.767Z,12.45
2022-12-24T02:09:40.014Z,12.49
2022-12-24T02:12:07.774Z,12.43
2022-12-24T02:14:35.374Z,12.49
2022-12-24T02:17:29.855Z,12.44
2022-12-24T02:20:33.895Z,12.57
2022-12-24T02:23:38.734Z,12.58
2022-12-24T02:26:37.312Z,12.56
2022-12-24T02:29:16.087Z,12.58
2022-12-24T02:32:01.506Z,12.56
2022-12-24T02:34:55.433Z,12.51
2022-12-24T02:37:33.634Z,12.61
2022-12-24T02:40:13.784Z,12.53
2022-12-24T02:42:47.093Z,12.54
2022-12-24T02:45:22.397Z,12.38
2022-12-24T02:47:51.611Z,12.43
2022-12-24T02:50:19.503Z,12.24
2022-12-24T02:52:47.892Z,12.44
2022-12-24T02:55:46.840Z,12.31
2022-12-24T02:58:43.891Z,12.40
2022-12-24T03:01:24.634Z,12.62
2022-12-24T03:04:39.163Z,12.04
2022-12-24T03:07:38.833Z,12.62
2022-12-24T03:10:30.927Z,12.53
2022-12-24T03:13:07.583Z,12.56
2022-12-24T03:15:35.127Z,12.75
2022-12-24T03:18:03.531Z,12.63
2022-12-24T03:20:47.693Z,12.58
2022-12-24T03:23:14.934Z,12.59
2022-12-24T03:25:44.438Z,12.64
2022-12-24T03:28:14.823Z,12.67
2022-12-24T03:30:44.151Z,12.61
2022-12-24T03:33:13.330Z,12.69
2022-12-24T03:35:40.383Z,12.73
2022-12-24T03:38:07.215Z,12.71
2022-12-24T03:40:34.126Z,12.83
2022-12-24T03:43:00.962Z,12.76
2022-12-24T03:45:28.157Z,12.74
2022-12-24T03:47:55.025Z,12.81
2022-12-24T03:50:21.961Z,12.72
2022-12-24T03:52:48.789Z,12.82
2022-12-24T03:55:15.744Z,12.88
2022-12-24T03:57:42.612Z,12.85
2022-12-24T04:00:10.420Z,12.80
2022-12-24T04:02:37.761Z,12.76
2022-12-24T04:05:05.429Z,12.79
2022-12-24T04:07:33.558Z,12.75
2022-12-24T04:10:00.393Z,13.01
2022-12-24T04:12:27.231Z,12.65
2022-12-24T04:14:54.103Z,12.89
2022-12-24T04:17:20.924Z,12.98
2022-12-24T04:19:47.795Z,13.04
2022-12-24T04:22:14.627Z,12.88
2022-12-24T04:24:41.451Z,13.00
2022-12-24T04:27:08.305Z,13.13
2022-12-24T04:29:35.095Z,13.10
2022-12-24T04:32:02.202Z,13.03
2022-12-24T04:34:29.177Z,13.13
2022-12-24T04:36:56.052Z,13.02
2022-12-24T04:39:22.996Z,13.11
2022-12-24T04:41:49.917Z,13.08
2022-12-24T04:44:16.767Z,13.06
2022-12-24T04:46:43.620Z,13.12
2022-12-24T04:49:11.135Z,13.11
2022-12-24T04:51:38.237Z,13.12
2022-12-24T04:54:05.150Z,13.08
2022-12-24T04:56:33.328Z,13.07
2022-12-24T04:59:01.514Z,12.95
2022-12-24T05:01:32.803Z,12.91
2022-12-24T05:04:00.152Z,13.04
2022-12-24T05:06:31.181Z,12.64
2022-12-24T05:08:58.994Z,12.85
2022-12-24T05:11:26.570Z,12.83
2022-12-24T05:13:53.383Z,12.59
2022-12-24T05:16:21.902Z,12.69
2022-12-24T05:18:49.409Z,12.55
2022-12-24T05:21:21.874Z,12.34
2022-12-24T05:24:07.705Z,12.41
2022-12-24T05:26:36.671Z,12.22
2022-12-24T05:29:05.557Z,12.42
2022-12-24T05:31:34.446Z,12.40
2022-12-24T05:34:03.209Z,12.32
2022-12-24T05:36:30.591Z,12.35
2022-12-24T05:38:57.720Z,12.33
2022-12-24T05:41:25.165Z,12.20
2022-12-24T05:43:52.140Z,12.00
2022-12-24T05:46:22.036Z,11.57
2022-12-24T05:48:50.047Z,11.75
2022-12-24T05:51:19.719Z,11.56
2022-12-24T05:53:47.921Z,11.40
2022-12-24T05:56:18.652Z,11.35
2022-12-24T05:58:46.007Z,11.33
2022-12-24T06:01:13.352Z,11.64
2022-12-24T06:03:40.395Z,11.71
2022-12-24T06:06:14.253Z,11.79
2022-12-24T06:08:42.305Z,11.89
2022-12-24T06:11:13.935Z,11.76
2022-12-24T06:13:42.038Z,11.76
2022-12-24T06:16:15.642Z,11.66
2022-12-24T06:18:42.651Z,11.68
2022-12-24T06:21:10.037Z,11.66
2022-12-24T06:23:40.370Z,11.66
2022-12-24T06:26:09.348Z,11.63
2022-12-24T06:28:38.259Z,11.58
2022-12-24T06:31:07.506Z,11.48
2022-12-24T06:33:35.105Z,11.36
2022-12-24T06:36:02.525Z,11.40
2022-12-24T06:38:32.457Z,11.43
2022-12-24T06:40:59.744Z,11.32
2022-12-24T06:43:26.608Z,11.36
2022-12-24T06:45:53.600Z,11.30
2022-12-24T06:48:20.449Z,11.27
2022-12-24T06:50:47.547Z,11.20
2022-12-24T06:53:14.587Z,11.16
2022-12-24T06:55:41.427Z,11.12
2022-12-24T06:58:08.268Z,11.13
2022-12-24T07:00:35.309Z,11.14
2022-12-24T07:03:02.116Z,11.13
2022-12-24T07:05:29.312Z,11.09
2022-12-24T07:07:56.658Z,11.16
2022-12-24T07:10:23.651Z,11.13
2022-12-24T07:12:50.522Z,11.20
2022-12-24T07:15:17.753Z,11.22
2022-12-24T07:17:44.873Z,11.22
2022-12-24T07:20:16.332Z,11.21
2022-12-24T07:22:43.539Z,11.19
2022-12-24T07:25:11.324Z,11.16
2022-12-24T07:27:38.899Z,11.18
2022-12-24T07:30:06.849Z,11.19
2022-12-24T07:32:33.912Z,11.10
2022-12-24T07:35:00.776Z,11.20
2022-12-24T07:37:27.717Z,11.28
2022-12-24T07:39:54.591Z,11.31
2022-12-24T07:42:21.858Z,11.29
2022-12-24T07:44:48.689Z,11.30
2022-12-24T07:47:15.508Z,11.33
2022-12-24T07:49:42.573Z,11.42
2022-12-24T07:52:09.390Z,11.42
2022-12-24T07:54:36.350Z,11.39
2022-12-24T07:57:03.392Z,11.42
2022-12-24T07:59:30.328Z,11.27
2022-12-24T08:01:57.380Z,11.62
2022-12-24T08:04:24.588Z,11.71
2022-12-24T08:06:51.382Z,11.77
2022-12-24T08:09:18.278Z,11.78
2022-12-24T08:11:51.662Z,11.87
2022-12-24T08:14:19.552Z,12.01
2022-12-24T08:16:46.490Z,12.11
2022-12-24T08:19:13.467Z,12.15
2022-12-24T08:21:40.584Z,12.22
2022-12-24T08:24:07.442Z,12.40
2022-12-24T08:26:34.374Z,12.29
2022-12-24T08:29:02.765Z,12.30
2022-12-24T08:31:29.843Z,12.21
2022-12-24T08:33:56.651Z,12.29
2022-12-24T08:36:23.462Z,12.35
2022-12-24T08:38:50.271Z,12.40
2022-12-24T08:41:17.145Z,12.48
2022-12-24T08:43:43.965Z,12.33
2022-12-24T08:46:11.311Z,12.61
2022-12-24T08:48:38.127Z,12.36
2022-12-24T08:51:12.474Z,12.78
2022-12-24T08:53:39.694Z,12.89
2022-12-24T08:56:09.363Z,12.82
2022-12-24T08:58:36.801Z,12.64
2022-12-24T09:01:15.793Z,12.78
2022-12-24T09:03:43.365Z,12.75
2022-12-24T09:06:10.760Z,12.65
2022-12-24T09:08:38.115Z,12.89
2022-12-24T09:11:08.533Z,13.03
2022-12-24T09:13:35.476Z,13.06
2022-12-24T09:16:02.596Z,13.09
2022-12-24T09:18:29.809Z,12.99
2022-12-24T09:21:06.120Z,12.90
2022-12-24T09:23:36.285Z,13.17
2022-12-24T09:26:07.735Z,13.05
2022-12-24T09:28:34.764Z,12.87
2022-12-24T09:31:03.823Z,13.03
2022-12-24T09:33:35.289Z,13.32
2022-12-24T09:36:03.143Z,13.25
2022-12-24T09:38:30.669Z,13.02
2022-12-24T09:41:02.456Z,13.13
2022-12-24T09:43:35.361Z,13.05
2022-12-24T09:46:32.749Z,12.91
2022-12-24T09:49:05.827Z,13.06
2022-12-24T09:51:50.003Z,13.22
2022-12-24T09:54:25.947Z,13.08
2022-12-24T09:56:55.217Z,13.08
2022-12-24T09:59:27.107Z,13.02
2022-12-24T10:01:55.122Z,12.82
2022-12-24T10:04:29.037Z,12.85
2022-12-24T10:07:36.110Z,12.98
2022-12-24T10:10:39.237Z,13.39
2022-12-24T10:13:17.902Z,13.45
2022-12-24T10:16:01.091Z,13.31
2022-12-24T10:19:15.130Z,12.94
2022-12-24T10:22:03.409Z,13.76
2022-12-24T10:25:22.039Z,14.57
2022-12-24T10:27:49.297Z,14.98
2022-12-24T10:30:19.864Z,15.93
2022-12-24T10:32:50.253Z,16.65
2022-12-24T10:35:19.779Z,16.77
2022-12-24T10:37:49.359Z,16.74
2022-12-24T10:40:39.874Z,17.40
2022-12-24T10:43:20.321Z,17.37
2022-12-24T10:45:55.073Z,17.93
2022-12-24T10:48:44.917Z,17.94
2022-12-24T10:51:33.442Z,19.07
2022-12-24T10:54:07.159Z,17.98
2022-12-24T10:56:44.729Z,18.23
2022-12-24T10:59:31.185Z,18.02
2022-12-24T11:02:00.831Z,17.39
2022-12-24T11:04:32.502Z,17.23
2022-12-24T11:07:05.055Z,18.09
2022-12-24T11:09:36.813Z,18.66
2022-12-24T11:12:09.344Z,18.85
2022-12-24T11:14:38.873Z,18.13
2022-12-24T11:17:06.245Z,18.93
2022-12-24T11:19:39.435Z,19.28
2022-12-24T11:22:23.167Z,19.65
2022-12-24T11:25:22.883Z,20.23
2022-12-24T11:27:51.683Z,19.61
2022-12-24T11:30:32.015Z,20.26
2022-12-24T11:33:01.823Z,20.20
2022-12-24T11:35:32.018Z,20.37
2022-12-24T11:38:05.044Z,20.12
2022-12-24T11:40:37.787Z,20.81
2022-12-24T11:43:11.084Z,20.48
2022-12-24T11:45:53.611Z,19.85
2022-12-24T11:48:34.513Z,21.02
2022-12-24T11:51:05.230Z,20.28
2022-12-24T11:53:52.867Z,19.58
2022-12-24T11:56:29.026Z,18.66
2022-12-24T11:59:07.697Z,16.37
2022-12-24T12:01:54.628Z,16.50
2022-12-24T12:04:34.736Z,18.09
2022-12-24T12:07:18.926Z,19.42
2022-12-24T12:10:20.917Z,20.65
2022-12-24T12:13:11.167Z,20.65
2022-12-24T12:15:59.964Z,20.21
2022-12-24T12:18:39.768Z,20.96
2022-12-24T12:21:17.102Z,21.43
2022-12-24T12:23:59.165Z,22.29
2022-12-24T12:26:32.149Z,22.62
2022-12-24T12:29:27.860Z,22.91
2022-12-24T12:32:05.261Z,21.48
2022-12-24T12:34:40.138Z,22.00
2022-12-24T12:37:16.495Z,19.69
2022-12-24T12:39:43.606Z,21.92
2022-12-24T12:42:35.093Z,21.82
2022-12-24T12:45:20.594Z,21.76
2022-12-24T12:48:29.417Z,21.54
2022-12-24T12:51:09.858Z,21.36
2022-12-24T12:54:31.193Z,22.99
2022-12-24T12:57:06.273Z,23.05
2022-12-24T12:59:41.775Z,22.29
2022-12-24T13:03:00.710Z,22.44
2022-12-24T13:05:39.273Z,22.70
2022-12-24T13:08:36.694Z,21.16
2022-12-24T13:11:22.616Z,21.18
2022-12-24T13:14:27.897Z,22.15
2022-12-24T13:17:19.921Z,21.12
2022-12-24T13:20:04.149Z,21.96
2022-12-24T13:22:31.031Z,21.27
2022-12-24T13:24:58.115Z,20.67
2022-12-24T13:27:34.451Z,19.08
2022-12-24T13:30:21.183Z,18.34
2022-12-24T13:32:53.555Z,18.17
2022-12-24T13:35:20.281Z,19.05
2022-12-24T13:37:49.018Z,19.42
2022-12-24T13:40:28.275Z,19.69
2022-12-24T13:43:01.303Z,20.17
2022-12-24T13:45:31.558Z,18.85
2022-12-24T13:48:07.691Z,19.05
2022-12-24T13:50:54.779Z,19.00
2022-12-24T13:53:39.727Z,17.97
2022-12-24T13:56:27.094Z,18.79
2022-12-24T13:59:11.914Z,17.78
2022-12-24T14:01:42.195Z,17.10
2022-12-24T14:04:23.281Z,16.48
2022-12-24T14:06:51.856Z,15.74
2022-12-24T14:09:23.127Z,15.52
2022-12-24T14:11:59.225Z,14.62
2022-12-24T14:14:35.940Z,14.20
2022-12-24T14:17:26.500Z,14.31
2022-12-24T14:20:00.270Z,14.04
2022-12-24T14:22:38.846Z,14.05
2022-12-24T14:25:23.301Z,13.98
2022-12-24T14:28:06.614Z,14.17
2022-12-24T14:30:33.614Z,13.92
2022-12-24T14:33:00.470Z,13.97
2022-12-24T14:35:37.367Z,13.99
2022-12-24T14:38:14.442Z,13.92
2022-12-24T14:41:17.722Z,13.94
2022-12-24T14:44:10.745Z,14.16
2022-12-24T14:46:49.577Z,13.89
2022-12-24T14:49:27.354Z,13.98
2022-12-24T14:52:30.750Z,13.43
2022-12-24T14:54:56.928Z,13.36
2022-12-24T14:57:26.581Z,13.36
2022-12-24T15:00:00.092Z,13.30
2022-12-24T15:02:48.621Z,13.33
2022-12-24T15:05:20.982Z,13.15
2022-12-24T15:07:54.416Z,13.26
2022-12-24T15:10:32.808Z,12.92
2022-12-24T15:13:06.455Z,13.13
2022-12-24T15:15:34.515Z,13.05
2022-12-24T15:18:03.632Z,12.89
2022-12-24T15:20:31.602Z,12.79
2022-12-24T15:22:59.452Z,12.52
2022-12-24T15:25:33.386Z,12.59
2022-12-24T15:28:00.328Z,12.60
2022-12-24T15:30:29.798Z,12.51
2022-12-24T15:32:58.441Z,12.46
2022-12-24T15:35:51.470Z,12.59
2022-12-24T15:38:30.535Z,11.97
2022-12-24T15:40:58.504Z,12.31
2022-12-24T15:43:26.166Z,12.27
2022-12-24T15:45:53.433Z,12.33
2022-12-24T15:48:26.414Z,12.26
2022-12-24T15:51:01.293Z,12.16
2022-12-24T15:53:31.167Z,12.43
2022-12-24T15:56:31.421Z,12.18
2022-12-24T15:59:19.207Z,12.21
2022-12-24T16:01:47.808Z,12.25
2022-12-24T16:04:26.778Z,12.25
2022-12-24T16:06:59.270Z,12.31
2022-12-24T16:09:46.115Z,12.20
2022-12-24T16:12:20.596Z,12.43
2022-12-24T16:14:52.891Z,12.51
2022-12-24T16:17:24.017Z,12.58
2022-12-24T16:19:55.091Z,12.50
2022-12-24T16:22:32.062Z,12.49
2022-12-24T16:25:27.914Z,12.35
2022-12-24T16:27:57.292Z,12.24
2022-12-24T16:30:27.200Z,12.03
2022-12-24T16:32:54.145Z,11.97
2022-12-24T16:35:27.409Z,12.19
2022-12-24T16:37:55.000Z,12.25
2022-12-24T16:40:27.199Z,12.19
2022-12-24T16:43:14.135Z,11.97
2022-12-24T16:45:41.735Z,12.05
2022-12-24T16:48:09.204Z,12.19
2022-12-24T16:50:36.287Z,12.21
2022-12-24T16:53:03.154Z,12.21
2022-12-24T16:55:30.038Z,12.22
2022-12-24T16:57:56.917Z,12.25
2022-12-24T17:00:25.545Z,12.26
2022-12-24T17:02:53.358Z,12.24
2022-12-24T17:05:23.638Z,12.19
2022-12-24T17:07:51.190Z,12.19
2022-12-24T17:10:18.279Z,12.22
2022-12-24T17:12:45.141Z,12.16
2022-12-24T17:15:12.511Z,12.12
2022-12-24T17:17:39.363Z,12.01
2022-12-24T17:20:07.151Z,11.95
2022-12-24T17:22:33.978Z,11.79
2022-12-24T17:25:00.850Z,11.81
2022-12-24T17:27:28.069Z,11.79
2022-12-24T17:29:55.577Z,11.72
2022-12-24T17:32:22.491Z,11.69
2022-12-24T17:34:49.300Z,11.67
2022-12-24T17:37:16.142Z,11.59
2022-12-24T17:39:43.032Z,11.56
2022-12-24T17:42:09.874Z,11.58
2022-12-24T17:44:36.789Z,11.58
2022-12-24T17:47:05.166Z,11.52
2022-12-24T17:49:32.356Z,11.56
2022-12-24T17:51:59.291Z,11.51
2022-12-24T17:54:26.139Z,11.58
2022-12-24T17:56:53.006Z,11.55
2022-12-24T17:59:19.883Z,11.59
2022-12-24T18:01:46.819Z,11.56
2022-12-24T18:04:13.757Z,11.55
2022-12-24T18:06:45.579Z,11.59
2022-12-24T18:09:15.738Z,11.54
2022-12-24T18:11:42.611Z,11.49
2022-12-24T18:14:14.026Z,11.45
2022-12-24T18:16:42.139Z,11.43
2022-12-24T18:19:11.983Z,11.45
2022-12-24T18:21:39.424Z,11.48
2022-12-24T18:24:06.790Z,11.50
2022-12-24T18:26:34.829Z,11.51
2022-12-24T18:29:06.095Z,11.48
2022-12-24T18:31:34.168Z,11.39
2022-12-24T18:34:04.894Z,11.39
2022-12-24T18:36:32.588Z,11.35
2022-12-24T18:39:00.013Z,11.29
2022-12-24T18:41:30.168Z,11.31
2022-12-24T18:43:58.237Z,11.31
2022-12-24T18:46:32.056Z,11.29
2022-12-24T18:49:00.295Z,11.27
2022-12-24T18:51:35.400Z,11.26
2022-12-24T18:54:06.381Z,11.24
2022-12-24T18:56:33.486Z,11.19
2022-12-24T18:59:03.022Z,11.16
2022-12-24T19:01:33.398Z,11.11
2022-12-24T19:04:01.618Z,11.04
2022-12-24T19:06:28.693Z,11.05
2022-12-24T19:08:57.605Z,11.05
2022-12-24T19:11:28.113Z,11.02
2022-12-24T19:13:55.178Z,10.98
2022-12-24T19:16:22.521Z,10.97
2022-12-24T19:18:50.126Z,10.96
2022-12-24T19:21:18.477Z,10.97
2022-12-24T19:23:46.913Z,10.98
2022-12-24T19:26:16.266Z,10.93
2022-12-24T19:28:43.535Z,10.95
2022-12-24T19:31:15.236Z,10.98
2022-12-24T19:33:49.660Z,10.99
2022-12-24T19:36:21.114Z,10.98
2022-12-24T19:38:48.140Z,10.96
2022-12-24T19:41:21.788Z,10.94
2022-12-24T19:43:52.962Z,10.93
2022-12-24T19:46:31.726Z,10.91
2022-12-24T19:49:02.536Z,10.87
2022-12-24T19:51:29.697Z,10.83
2022-12-24T19:53:58.498Z,10.80
2022-12-24T19:56:29.612Z,10.79
2022-12-24T19:58:57.691Z,10.78
2022-12-24T20:01:27.887Z,10.79
2022-12-24T20:03:56.461Z,10.75
2022-12-24T20:06:27.797Z,10.73
2022-12-24T20:09:13.023Z,10.73
2022-12-24T20:11:39.908Z,10.72
2022-12-24T20:14:06.962Z,10.65
2022-12-24T20:16:35.512Z,10.62
2022-12-24T20:19:06.102Z,10.65
2022-12-24T20:21:33.728Z,10.70
2022-12-24T20:24:00.597Z,10.71
2022-12-24T20:26:29.256Z,10.71
2022-12-24T20:28:56.376Z,10.70
2022-12-24T20:31:29.637Z,10.71
2022-12-24T20:33:58.221Z,10.72
2022-12-24T20:36:27.148Z,10.76
2022-12-24T20:38:54.156Z,10.76
2022-12-24T20:41:25.149Z,10.74
2022-12-24T20:43:52.627Z,10.71
2022-12-24T20:46:22.569Z,10.73
2022-12-24T20:48:50.007Z,10.67
2022-12-24T20:51:25.469Z,10.62
2022-12-24T20:53:59.517Z,10.63
2022-12-24T20:56:26.860Z,10.62
2022-12-24T20:58:53.951Z,10.58
2022-12-24T21:01:25.672Z,10.61
2022-12-24T21:03:57.683Z,10.60
2022-12-24T21:06:25.292Z,10.63
2022-12-24T21:08:53.421Z,10.54
2022-12-24T21:11:39.611Z,10.48
2022-12-24T21:14:06.978Z,10.47
2022-12-24T21:16:35.694Z,10.47
2022-12-24T21:19:02.896Z,10.43
2022-12-24T21:21:30.217Z,10.43
2022-12-24T21:23:57.305Z,10.41
2022-12-24T21:26:24.146Z,10.43
2022-12-24T21:28:50.983Z,10.43
2022-12-24T21:31:18.621Z,10.45
2022-12-24T21:33:45.910Z,10.42
2022-12-24T21:36:14.604Z,10.40
2022-12-24T21:38:41.774Z,10.38
2022-12-24T21:41:15.703Z,10.38
2022-12-24T21:43:43.562Z,10.38
2022-12-24T21:46:15.013Z,10.43
2022-12-24T21:49:00.682Z,10.40
2022-12-24T21:51:28.293Z,10.40
2022-12-24T21:54:14.924Z,10.47
2022-12-24T21:57:00.833Z,10.48
2022-12-24T21:59:28.174Z,10.41
2022-12-24T22:01:56.429Z,10.41
2022-12-24T22:04:24.043Z,10.39
2022-12-24T22:07:10.349Z,10.37
2022-12-24T22:09:59.317Z,10.35
2022-12-24T22:12:30.859Z,10.35
2022-12-24T22:14:58.024Z,10.30
2022-12-24T22:17:25.952Z,10.28
2022-12-24T22:19:54.348Z,10.29
2022-12-24T22:22:22.630Z,10.29
2022-12-24T22:24:49.655Z,10.28
2022-12-24T22:27:16.533Z,10.27
2022-12-24T22:29:43.411Z,10.22
2022-12-24T22:32:10.214Z,10.18
2022-12-24T22:34:37.112Z,10.21
2022-12-24T22:37:03.946Z,10.22
2022-12-24T22:39:30.803Z,10.25
2022-12-24T22:42:00.317Z,10.32
2022-12-24T22:44:27.321Z,10.34
2022-12-24T22:46:54.350Z,10.34
2022-12-24T22:49:21.294Z,10.35
2022-12-24T22:51:48.104Z,10.38
2022-12-24T22:54:15.071Z,10.38
2022-12-24T22:56:42.037Z,10.36
2022-12-24T22:59:12.615Z,10.35
2022-12-24T23:01:43.156Z,10.32
2022-12-24T23:04:10.776Z,10.24
2022-12-24T23:06:37.702Z,10.24
2022-12-24T23:09:08.289Z,10.29
2022-12-24T23:11:35.807Z,10.27
2022-12-24T23:14:21.132Z,10.29
2022-12-24T23:16:47.929Z,10.25
2022-12-24T23:19:14.932Z,10.25
2022-12-24T23:21:41.729Z,10.24
2022-12-24T23:24:11.200Z,10.26
2022-12-24T23:26:38.132Z,10.29
2022-12-24T23:29:05.002Z,10.34
2022-12-24T23:31:34.598Z,10.34
2022-12-24T23:34:02.123Z,10.26
2022-12-24T23:36:29.251Z,10.19
2022-12-24T23:38:57.551Z,10.06
2022-12-24T23:41:24.552Z,9.98
2022-12-24T23:43:51.465Z,9.87
2022-12-24T23:46:19.931Z,9.86
2022-12-24T23:48:47.365Z,9.82
2022-12-24T23:51:19.578Z,9.78
2022-12-24T23:53:46.441Z,9.74
2022-12-24T23:56:13.421Z,9.76
2022-12-24T23:58:42.096Z,9.75
